Latest Weather Observations for Hamilton

IDV60801

Issued at 10:34 am EST Monday 21 August 2017 (issued every 30 minutes, with the page automatically refreshed every 10 minutes)

About weather observations | Map of weather stations | Latest weather observations for VIC | Other Formats
Station Details ID: 090173 Name: HAMILTON AIRPORT Lat: -37.65 Lon: 142.06 Height: 241.1 m
Data from the previous 72 hours. | See also: Recent months at Hamilton
Date/Time
EST
Temp
°C
App
Temp
°C
Dew
Point
°C
Rel
Hum
%
Delta-T
°C
Wind Press
QNH
hPa
Press
MSL
hPa
Rain since
9am
mm
Dir  Spd
km/h
Gust
km/h
Spd
kts
Gust
kts
21/10:30am 8.0 3.6 4.9 81 1.4 N 17 24 9 13 1013.0 1013.3 0.0
21/10:00am 7.1 3.0 4.4 83 1.2 N 15 22 8 12 1013.3 1013.6 0.0
21/09:30am 6.1 2.8 4.6 90 0.7 NNE 11 15 6 8 1013.4 1013.7 0.0
21/09:00am 5.5 2.1 4.2 91 0.6 NE 11 15 6 8 1013.3 1013.6 2.0
21/08:30am 5.1 0.9 3.8 91 0.6 NE 15 20 8 11 1013.1 1013.4 2.0
21/08:00am 4.7 0.8 3.4 91 0.5 NNE 13 19 7 10 1013.2 1013.5 1.8
21/07:30am 4.5 -0.2 3.0 90 0.6 NNE 17 22 9 12 1013.2 1013.5 1.8
21/07:00am 4.5 -0.8 3.0 90 0.6 N 20 28 11 15 1013.0 1013.3 1.8
21/06:47am 4.5 -0.8 3.0 90 0.6 N 20 30 11 16 1013.0 1013.3 1.6
21/06:30am 4.6 -1.0 3.3 91 0.5 N 22 32 12 17 1012.9 1013.2 1.6
21/06:28am 4.5 -1.1 3.2 91 0.5 N 22 32 12 17 1012.8 1013.1 1.6
21/06:00am 4.5 -0.8 3.0 90 0.6 N 20 33 11 18 1012.8 1013.1 1.4
21/05:30am 4.4 -0.3 2.9 90 0.6 N 17 22 9 12 1012.9 1013.2 1.4
21/05:00am 4.4 -0.9 3.1 91 0.5 N 20 26 11 14 1012.9 1013.2 1.2
21/04:55am 4.4 -0.9 3.1 91 0.5 N 20 26 11 14 1013.0 1013.3 1.2
21/04:30am 4.4 -1.7 2.9 90 0.6 N 24 32 13 17 1013.3 1013.6 1.2
21/04:05am 4.7 -1.4 3.0 89 0.7 N 24 35 13 19 1013.6 1013.9 1.0
21/04:00am 4.7 -2.1 3.0 89 0.7 N 28 41 15 22 1013.6 1013.9 1.0
21/03:30am 4.9 -1.5 3.1 88 0.8 N 26 33 14 18 1013.9 1014.2 1.0
21/03:00am 5.1 -0.9 3.3 88 0.8 N 24 35 13 19 1014.2 1014.5 0.8
21/02:30am 5.5 -0.5 3.3 86 0.9 N 24 30 13 16 1014.7 1015.1 0.6
21/02:00am 6.0 -0.1 3.0 81 1.3 N 24 30 13 16 1014.9 1015.3 0.4
21/01:30am 6.3 1.0 2.8 78 1.5 N 20 28 11 15 1015.4 1015.7 0.0
21/01:00am 5.6 1.9 2.4 80 1.3 NNE 11 15 6 8 1015.6 1015.9 0.0
21/12:30am 5.6 1.5 2.3 79 1.4 NE 13 15 7 8 1015.9 1016.2 0.0
21/12:00am 5.5 2.2 2.5 81 1.2 NE 9 11 5 6 1016.3 1016.6 0.0
 
Date/Time
EST
Temp
°C
App
Temp
°C
Dew
Point
°C
Rel
Hum
%
Delta-T
°C
Wind Press
QNH
hPa
Press
MSL
hPa
Rain since
9am
mm
Dir  Spd
km/h
Gust
km/h
Spd
kts
Gust
kts
20/11:30pm 5.6 1.5 2.3 79 1.4 NE 13 15 7 8 1016.6 1016.9 0.0
20/11:00pm 5.3 1.6 2.1 80 1.3 NE 11 13 6 7 1016.9 1017.2 0.0
20/10:30pm 5.0 1.6 1.8 80 1.3 ENE 9 11 5 6 1017.3 1017.6 0.0
20/10:00pm 5.1 2.1 2.1 81 1.2 N 7 9 4 5 1017.6 1017.9 0.0
20/09:30pm 5.4 1.6 1.9 78 1.4 ENE 11 15 6 8 1017.3 1017.6 0.0
20/09:00pm 5.3 1.2 2.0 79 1.3 NE 13 15 7 8 1017.5 1017.8 0.0
20/08:30pm 5.6 1.4 1.7 76 1.6 NE 13 17 7 9 1017.7 1018.0 0.0
20/08:00pm 5.1 1.0 2.1 81 1.2 NE 13 15 7 8 1017.7 1018.0 0.0
20/07:30pm 5.2 1.4 1.9 79 1.3 NE 11 13 6 7 1018.1 1018.5 0.0
20/07:00pm 5.4 2.0 2.1 79 1.3 NNE 9 11 5 6 1018.5 1018.9 0.0
20/06:30pm 5.8 2.0 1.7 75 1.7 NNE 11 15 6 8 1018.6 1019.0 0.0
20/06:00pm 6.2 2.3 1.3 71 2.0 NNE 11 15 6 8 1018.9 1019.3 0.0
20/05:30pm 7.0 2.7 1.3 67 2.3 N 13 19 7 10 1019.1 1019.5 0.0
20/05:00pm 7.5 4.0 1.4 65 2.5 NNW 9 13 5 7 1019.3 1019.7 0.0
20/04:30pm 7.8 3.9 1.4 64 2.6 N 11 13 6 7 1019.2 1019.6 0.0
20/04:00pm 8.4 3.6 0.4 57 3.2 N 15 20 8 11 1019.4 1019.8 0.0
20/03:30pm 8.9 5.0 0.9 57 3.3 N 11 15 6 8 1020.0 1020.3 0.0
20/03:00pm 9.1 3.8 -0.5 51 3.8 NNW 17 20 9 11 1020.4 1020.7 0.0
20/02:30pm 9.4 4.6 0.1 52 3.8 NNW 15 20 8 11 1020.2 1020.5 0.0
20/02:00pm 10.3 6.3 0.3 50 4.1 N 11 19 6 10 1020.5 1020.8 0.0
20/01:30pm 9.3 4.9 0.5 54 3.6 N 13 19 7 10 1021.4 1021.7 0.0
20/01:00pm 9.2 4.8 0.4 54 3.6 NNE 13 19 7 10 1021.8 1022.2 0.0
20/12:30pm 9.3 5.2 0.0 52 3.8 NNE 11 17 6 9 1023.0 1023.4 0.0
20/12:00pm 8.0 4.1 1.0 61 2.8 N 11 15 6 8 1024.1 1024.4 0.0
20/11:30am 8.2 4.1 2.0 65 2.6 NNW 13 17 7 9 1025.1 1025.5 0.0
20/11:00am 6.9 3.1 1.6 69 2.2 NNE 11 15 6 8 1025.0 1025.3 0.0
20/10:30am 6.4 2.7 2.1 74 1.8 NNE 11 17 6 9 1025.4 1025.8 0.0
20/10:00am 5.7 2.4 2.4 79 1.4 N 9 13 5 7 1026.2 1026.6 0.0
20/09:30am 4.4 1.2 2.8 89 0.7 NNE 9 13 5 7 1026.4 1026.8 0.0
20/09:00am 2.9 -0.1 2.3 96 0.2 N 7 9 4 5 1026.5 1026.9 0.2
20/08:30am 1.4 -2.2 0.8 96 0.2 NNE 9 11 5 6 1026.7 1027.1 0.2
20/08:00am -0.4 -4.2 -1.0 96 0.2 NNE 9 9 5 5 1026.7 1027.1 0.0
20/07:30am -0.7 -4.6 -1.3 96 0.2 N 9 11 5 6 1026.9 1027.3 0.0
20/07:00am -0.4 -3.9 -1.0 96 0.2 N 7 9 4 5 1026.6 1027.0 0.0
20/06:38am -0.7 -4.2 -1.3 96 0.2 N 7 7 4 4 1026.5 1026.9 0.0
20/06:34am -0.7 -4.2 -1.3 96 0.2 N 7 7 4 4 1026.5 1026.9 0.0
20/06:30am -0.9 -4.4 -1.5 96 0.2 N 7 7 4 4 1026.5 1026.9 0.0
20/06:00am -0.9 -4.8 -1.5 96 0.2 N 9 11 5 6 1026.6 1027.0 0.0
20/05:30am 0.1 -3.7 -0.5 96 0.2 N 9 9 5 5 1026.5 1026.9 0.0
20/05:00am 0.6 -2.7 0.0 96 0.2 N 7 9 4 5 1026.5 1026.9 0.0
20/04:30am 0.7 -2.6 0.1 96 0.2 N 7 9 4 5 1026.4 1026.8 0.0
20/04:00am -0.5 -3.8 -1.2 95 0.2 N 6 7 3 4 1026.8 1027.2 0.0
20/03:30am 0.8 -2.5 0.1 95 0.3 N 7 9 4 5 1026.8 1027.2 0.0
20/03:00am 1.1 -0.8 0.4 95 0.3 CALM 0 0 0 0 1026.8 1027.2 0.0
20/02:30am 0.7 -1.3 0.0 95 0.3 CALM 0 0 0 0 1027.0 1027.4 0.0
20/02:09am 0.4 -3.0 -0.5 94 0.3 N 7 7 4 4 1027.2 1027.6 0.0
20/02:03am 1.4 -1.8 0.7 95 0.3 N 7 9 4 5 1027.2 1027.6 0.0
20/02:00am 1.4 -1.8 0.7 95 0.3 N 7 9 4 5 1027.2 1027.6 0.0
20/01:38am 1.2 -2.1 0.3 94 0.3 N 7 9 4 5 1027.2 1027.6 0.0
20/01:30am 1.2 -1.9 0.3 94 0.3 N 6 9 3 5 1027.3 1027.7 0.0
20/01:00am 1.8 0.0 0.9 94 0.3 CALM 0 0 0 0 1027.3 1027.7 0.0
20/12:30am 1.1 -2.0 0.1 93 0.4 N 6 7 3 4 1027.3 1027.7 0.0
20/12:09am 1.1 -2.0 0.1 93 0.4 N 6 7 3 4 1027.4 1027.8 0.0
20/12:00am 0.8 -2.4 -0.2 93 0.4 NNW 6 7 3 4 1027.6 1028.0 0.0
 
Date/Time
EST
Temp
°C
App
Temp
°C
Dew
Point
°C
Rel
Hum
%
Delta-T
°C
Wind Press
QNH
hPa
Press
MSL
hPa
Rain since
9am
mm
Dir  Spd
km/h
Gust
km/h
Spd
kts
Gust
kts
19/11:48pm 1.3 -1.8 0.3 93 0.4 N 6 7 3 4 1027.7 1028.1 0.0
19/11:30pm 1.6 -1.7 0.4 92 0.5 N 7 9 4 5 1027.7 1028.1 0.0
19/11:00pm 1.7 -1.6 0.4 91 0.5 N 7 9 4 5 1028.1 1028.5 0.0
19/10:30pm 2.5 -0.5 0.9 89 0.6 ENE 6 7 3 4 1028.3 1028.6 0.0
19/10:00pm 2.5 0.6 0.7 88 0.7 CALM 0 0 0 0 1028.3 1028.6 0.0
19/09:30pm 2.6 0.0 0.8 88 0.7 SSW 4 6 2 3 1028.8 1029.2 0.0
19/09:00pm 3.3 0.4 1.3 87 0.8 S 6 7 3 4 1028.5 1028.8 0.0
19/08:30pm 3.4 0.5 1.4 87 0.8 S 6 7 3 4 1028.3 1028.6 0.0
19/08:00pm 3.7 0.9 2.1 89 0.6 SSW 6 6 3 3 1028.1 1028.5 0.0
19/07:30pm 3.8 1.0 1.8 87 0.8 SSW 6 7 3 4 1027.9 1028.3 0.0
19/07:00pm 4.0 0.5 1.5 84 1.0 S 9 11 5 6 1027.7 1028.1 0.0
19/06:30pm 4.7 1.3 1.9 82 1.1 SE 9 13 5 7 1027.4 1027.8 0.0
19/06:00pm 6.0 1.5 2.1 76 1.6 SE 15 17 8 9 1027.3 1027.7 0.0
19/05:30pm 7.9 3.7 1.7 65 2.6 S 13 15 7 8 1027.5 1027.9 0.0
19/05:00pm 8.7 3.7 1.4 60 3.0 S 17 22 9 12 1027.5 1027.9 0.0
19/04:30pm 9.4 5.0 2.9 64 2.8 S 15 20 8 11 1027.6 1028.0 0.0
19/04:00pm 10.2 5.6 1.8 56 3.6 S 15 20 8 11 1027.5 1027.9 0.0
19/03:30pm 10.1 4.9 2.2 58 3.4 SSW 19 20 10 11 1027.6 1028.0 0.0
19/03:00pm 10.5 4.6 1.9 55 3.7 SSW 22 30 12 16 1027.6 1028.0 0.0
19/02:30pm 9.6 3.4 2.2 60 3.2 SSW 24 33 13 18 1027.5 1027.9 0.0
19/02:00pm 10.6 3.5 1.4 53 3.9 SW 28 37 15 20 1027.4 1027.8 0.0
19/01:30pm 10.2 5.2 1.1 53 3.8 SSW 17 24 9 13 1027.6 1028.0 0.0
19/01:00pm 9.9 4.3 1.0 54 3.7 SSW 20 28 11 15 1027.7 1028.1 0.0
19/12:30pm 9.6 4.9 2.9 63 2.9 SSW 17 24 9 13 1027.9 1028.3 0.0
19/12:00pm 9.0 3.3 3.0 66 2.6 SSW 22 32 12 17 1028.3 1028.6 0.0
19/11:30am 8.7 4.1 3.5 70 2.3 SSW 17 22 9 12 1028.4 1028.7 0.0
19/11:00am 8.3 4.1 3.9 74 1.9 SSW 15 19 8 10 1028.5 1028.8 0.0
19/10:30am 8.5 4.8 4.5 76 1.8 S 13 19 7 10 1028.4 1028.7 0.0
19/10:00am 6.8 3.8 4.1 83 1.2 SW 9 13 5 7 1028.1 1028.5 0.0
19/09:30am 5.8 2.9 4.8 93 0.4 W 9 13 5 7 1028.0 1028.4 0.0
19/09:00am 5.0 3.7 4.3 95 0.3 CALM 0 0 0 0 1027.6 1028.0 8.2
19/08:30am 3.3 1.0 2.7 96 0.2 NNW 4 7 2 4 1027.3 1027.7 8.2
19/08:00am 2.7 1.0 2.0 95 0.3 CALM 0 0 0 0 1026.8 1027.2 8.2
19/07:30am 2.2 -0.7 1.5 95 0.3 WSW 6 7 3 4 1026.3 1026.7 8.2
19/07:00am 1.7 -1.8 1.0 95 0.3 WNW 9 13 5 7 1025.9 1026.3 8.2
19/06:30am 2.1 -2.1 1.4 95 0.3 SSW 13 15 7 8 1025.5 1025.9 8.2
19/06:00am 2.7 -0.1 2.0 95 0.3 SW 6 7 3 4 1025.1 1025.5 8.2
19/05:30am 3.2 -0.1 2.5 95 0.3 SSW 9 11 5 6 1024.8 1025.1 8.2
19/05:00am 2.6 -0.8 2.0 96 0.2 SSW 9 13 5 7 1024.6 1024.9 8.0
19/04:30am 2.5 -0.5 1.9 96 0.2 WSW 7 9 4 5 1024.2 1024.5 8.0
19/04:00am 2.7 -0.1 2.0 95 0.3 WSW 6 9 3 5 1024.1 1024.4 8.0
19/03:30am 3.3 0.0 2.6 95 0.3 W 9 11 5 6 1023.6 1024.0 8.0
19/03:00am 3.2 -0.1 2.5 95 0.3 WNW 9 11 5 6 1023.6 1024.0 8.0
19/02:30am 2.8 -0.6 2.1 95 0.3 WNW 9 13 5 7 1023.6 1024.0 8.0
19/02:00am 2.9 -0.1 2.2 95 0.3 WNW 7 9 4 5 1023.5 1023.9 8.0
19/01:30am 3.2 1.2 2.5 95 0.3 WNW 2 7 1 4 1023.4 1023.8 8.0
19/01:00am 3.6 0.9 2.9 95 0.3 NW 6 7 3 4 1023.2 1023.6 8.0
19/12:30am 4.0 1.8 3.3 95 0.3 W 4 7 2 4 1023.1 1023.5 8.0
19/12:00am 4.3 0.8 3.6 95 0.3 W 11 17 6 9 1022.9 1023.3 8.0
 
Date/Time
EST
Temp
°C
App
Temp
°C
Dew
Point
°C
Rel
Hum
%
Delta-T
°C
Wind Press
QNH
hPa
Press
MSL
hPa
Rain since
9am
mm
Dir  Spd
km/h
Gust
km/h
Spd
kts
Gust
kts
18/11:30pm 4.3 1.2 3.6 95 0.3 W 9 13 5 7 1022.9 1023.3 8.0
18/11:00pm 4.0 1.2 3.1 94 0.4 WSW 7 11 4 6 1022.9 1023.3 7.8
18/10:30pm 4.6 0.0 3.9 95 0.3 SW 17 26 9 14 1022.9 1023.3 7.8
18/10:00pm 4.6 0.8 3.9 95 0.3 W 13 17 7 9 1022.3 1022.7 7.6
18/09:30pm 4.5 0.7 3.8 95 0.3 W 13 17 7 9 1022.1 1022.5 7.6
18/09:00pm 4.4 0.9 3.5 94 0.4 W 11 15 6 8 1021.9 1022.3 7.6
18/08:30pm 5.0 1.2 4.1 94 0.4 WSW 13 15 7 8 1021.4 1021.7 7.6
18/08:00pm 5.3 0.8 4.4 94 0.4 W 17 20 9 11 1021.2 1021.5 7.6
18/07:30pm 5.5 0.5 4.5 93 0.4 WSW 20 28 11 15 1020.9 1021.2 7.0
18/07:00pm 5.3 0.8 4.1 92 0.5 WSW 17 20 9 11 1020.5 1020.8 6.6
18/06:30pm 5.5 1.0 4.2 91 0.6 WSW 17 20 9 11 1020.0 1020.3 6.2
18/06:00pm 5.6 -0.3 4.1 90 0.6 W 24 35 13 19 1019.3 1019.7 5.6
18/05:30pm 6.2 -0.4 4.4 88 0.8 W 28 41 15 22 1018.7 1019.1 5.2
18/05:00pm 7.2 0.9 4.0 80 1.4 WSW 26 35 14 19 1018.2 1018.6 5.0
18/04:30pm 7.1 -0.9 3.9 80 1.4 WSW 35 52 19 28 1017.6 1017.9 4.8
18/04:21pm 7.8 1.3 4.6 80 1.4 W 28 50 15 27 1017.5 1017.8 4.8
18/04:00pm 8.8 2.2 4.0 72 2.1 WSW 28 39 15 21 1017.0 1017.3 4.8
18/03:30pm 8.6 1.1 3.4 70 2.3 WSW 32 41 17 22 1016.5 1016.8 4.8
18/03:00pm 8.5 1.1 3.8 72 2.1 WSW 32 44 17 24 1016.2 1016.5 4.8
18/02:30pm 7.9 0.0 4.3 78 1.6 SW 35 61 19 33 1016.0 1016.3 4.8
18/02:29pm 8.0 -0.3 4.4 78 1.6 SW 37 61 20 33 1016.0 1016.3 4.8
18/02:27pm 7.8 -0.2 3.7 75 1.8 SW 35 61 19 33 1016.0 1016.3 4.8
18/02:06pm 9.1 0.4 4.3 72 2.1 WSW 39 61 21 33 1015.3 1015.6 4.6
18/02:00pm 9.8 2.6 5.2 73 2.1 WSW 32 43 17 23 1015.3 1015.6 4.6
18/01:30pm 8.9 1.1 4.9 76 1.8 WSW 35 50 19 27 1015.1 1015.5 4.6
18/01:00pm 8.8 1.6 5.2 78 1.6 WSW 32 43 17 23 1014.9 1015.3 4.6
18/12:30pm 8.1 2.9 5.6 84 1.1 WSW 22 32 12 17 1014.8 1015.2 4.6
18/12:00pm 6.8 0.6 4.5 85 1.0 SW 26 35 14 19 1014.8 1015.2 4.6
18/11:30am 5.9 -0.3 4.1 88 0.8 WSW 26 43 14 23 1014.4 1014.7 4.4
18/11:22am 6.1 1.0 4.3 88 0.8 WSW 20 30 11 16 1014.2 1014.5 3.8
18/11:00am 5.6 -2.0 2.9 83 1.1 SW 32 52 17 28 1014.2 1014.5 2.6
18/10:54am 6.8 0.6 4.3 84 1.1 SW 26 41 14 22 1014.3 1014.6 1.8

Other Formats:

Comma delimited format used in spreadsheet applications
http://www.bom.gov.au/fwo/IDV60801/IDV60801.94829.axf

JavaScript Object Notation format (JSON) in row-major order
http://www.bom.gov.au/fwo/IDV60801/IDV60801.94829.json